createdAt,value
2022-10-25T00:00:01.775Z,70.66
2022-10-25T00:02:42.335Z,70.86
2022-10-25T00:05:18.643Z,71.05
2022-10-25T00:07:49.761Z,70.41
2022-10-25T00:10:23.496Z,70.46
2022-10-25T00:12:56.662Z,70.50
2022-10-25T00:15:28.196Z,70.25
2022-10-25T00:17:59.200Z,70.31
2022-10-25T00:20:30.044Z,70.09
2022-10-25T00:23:00.908Z,70.60
2022-10-25T00:25:31.666Z,70.16
2022-10-25T00:28:02.467Z,70.18
2022-10-25T00:30:33.417Z,70.09
2022-10-25T00:33:04.217Z,70.09
2022-10-25T00:35:35.127Z,69.86
2022-10-25T00:38:06.062Z,69.80
2022-10-25T00:40:37.034Z,69.83
2022-10-25T00:43:07.856Z,69.62
2022-10-25T00:45:38.764Z,69.81
2022-10-25T00:48:14.281Z,69.62
2022-10-25T00:50:57.608Z,69.80
2022-10-25T00:53:40.104Z,69.23
2022-10-25T00:56:20.222Z,69.41
2022-10-25T00:58:56.283Z,69.29
2022-10-25T01:01:28.271Z,69.23
2022-10-25T01:04:02.855Z,69.31
2022-10-25T01:06:49.518Z,69.02
2022-10-25T01:09:33.474Z,69.28
2022-10-25T01:12:04.304Z,69.02
2022-10-25T01:14:44.376Z,68.93
2022-10-25T01:17:41.190Z,68.82
2022-10-25T01:20:42.015Z,69.13
2022-10-25T01:23:22.065Z,68.87
2022-10-25T01:25:59.312Z,69.28
2022-10-25T01:28:59.035Z,69.26
2022-10-25T01:32:07.691Z,69.23
2022-10-25T01:34:50.766Z,69.19
2022-10-25T01:37:39.015Z,68.58
2022-10-25T01:40:25.034Z,69.06
2022-10-25T01:43:17.145Z,69.11
2022-10-25T01:46:17.007Z,69.08
2022-10-25T01:48:51.887Z,69.03
2022-10-25T01:51:22.704Z,69.13
2022-10-25T01:53:54.895Z,68.81
2022-10-25T01:56:31.460Z,69.04
2022-10-25T01:59:54.991Z,68.84
2022-10-25T02:02:33.928Z,68.94
2022-10-25T02:05:30.031Z,68.62
2022-10-25T02:08:06.344Z,68.51
2022-10-25T02:10:40.010Z,68.50
2022-10-25T02:13:36.633Z,68.92
2022-10-25T02:16:28.377Z,68.70
2022-10-25T02:19:05.179Z,69.07
2022-10-25T02:21:39.245Z,68.58
2022-10-25T02:24:24.358Z,68.66
2022-10-25T02:26:57.419Z,68.67
2022-10-25T02:29:31.215Z,68.53
2022-10-25T02:32:02.523Z,67.68
2022-10-25T02:34:33.743Z,67.92
2022-10-25T02:37:04.240Z,67.39
2022-10-25T02:39:36.275Z,65.85
2022-10-25T02:42:08.392Z,66.18
2022-10-25T02:44:39.446Z,67.19
2022-10-25T02:47:10.297Z,66.84
2022-10-25T02:49:41.313Z,66.76
2022-10-25T02:52:12.242Z,66.65
2022-10-25T02:54:43.181Z,66.05
2022-10-25T02:57:14.052Z,66.16
2022-10-25T02:59:45.029Z,66.40
2022-10-25T03:02:15.940Z,65.75
2022-10-25T03:04:46.900Z,65.44
2022-10-25T03:07:17.976Z,65.43
2022-10-25T03:09:48.942Z,65.25
2022-10-25T03:12:19.766Z,65.55
2022-10-25T03:14:50.497Z,65.49
2022-10-25T03:17:21.306Z,65.43
2022-10-25T03:19:52.168Z,65.45
2022-10-25T03:22:23.199Z,65.87
2022-10-25T03:24:54.100Z,64.83
2022-10-25T03:27:25.321Z,65.49
2022-10-25T03:29:57.523Z,65.53
2022-10-25T03:32:28.387Z,65.33
2022-10-25T03:34:59.187Z,64.44
2022-10-25T03:37:30.157Z,64.03
2022-10-25T03:40:00.953Z,64.27
2022-10-25T03:42:31.930Z,64.40
2022-10-25T03:45:02.841Z,64.79
2022-10-25T03:47:33.654Z,64.45
2022-10-25T03:50:05.035Z,64.60
2022-10-25T03:52:35.386Z,63.52
2022-10-25T03:55:06.862Z,63.77
2022-10-25T03:57:38.013Z,63.98
2022-10-25T04:00:09.339Z,63.80
2022-10-25T04:02:43.267Z,63.48
2022-10-25T04:05:14.033Z,63.46
2022-10-25T04:07:45.428Z,62.60
2022-10-25T04:10:16.471Z,63.06
2022-10-25T04:12:47.586Z,62.53
2022-10-25T04:15:19.149Z,62.89
2022-10-25T04:17:54.059Z,63.02
2022-10-25T04:20:25.560Z,62.83
2022-10-25T04:22:58.399Z,63.18
2022-10-25T04:25:30.736Z,62.85
2022-10-25T04:28:03.089Z,62.11
2022-10-25T04:30:36.585Z,62.55
2022-10-25T04:33:10.054Z,62.98
2022-10-25T04:35:40.992Z,63.05
2022-10-25T04:38:11.701Z,62.94
2022-10-25T04:40:42.754Z,63.00
2022-10-25T04:43:13.410Z,63.01
2022-10-25T04:45:44.317Z,62.97
2022-10-25T04:48:15.307Z,62.92
2022-10-25T04:50:46.416Z,62.48
2022-10-25T04:53:17.202Z,62.06
2022-10-25T04:55:48.327Z,62.45
2022-10-25T04:58:19.084Z,62.44
2022-10-25T05:00:50.510Z,61.59
2022-10-25T05:03:21.502Z,61.61
2022-10-25T05:05:52.414Z,61.10
2022-10-25T05:08:23.241Z,61.51
2022-10-25T05:10:58.117Z,62.04
2022-10-25T05:13:28.945Z,62.01
2022-10-25T05:16:02.291Z,62.04
2022-10-25T05:18:35.132Z,62.01
2022-10-25T05:21:08.819Z,61.19
2022-10-25T05:23:39.820Z,61.59
2022-10-25T05:26:13.512Z,61.56
2022-10-25T05:28:46.872Z,61.81
2022-10-25T05:31:20.739Z,61.12
2022-10-25T05:33:57.122Z,61.35
2022-10-25T05:36:28.445Z,61.70
2022-10-25T05:38:59.284Z,60.92
2022-10-25T05:41:33.194Z,61.27
2022-10-25T05:44:07.803Z,61.63
2022-10-25T05:46:39.233Z,61.46
2022-10-25T05:49:09.690Z,61.70
2022-10-25T05:51:41.698Z,61.18
2022-10-25T05:54:17.306Z,60.79
2022-10-25T05:56:48.220Z,61.14
2022-10-25T05:59:19.177Z,60.66
2022-10-25T06:01:53.781Z,60.94
2022-10-25T06:04:38.199Z,60.86
2022-10-25T06:07:09.058Z,60.62
2022-10-25T06:09:39.788Z,60.66
2022-10-25T06:12:10.639Z,60.67
2022-10-25T06:14:43.235Z,60.67
2022-10-25T06:17:16.495Z,61.03
2022-10-25T06:19:47.402Z,60.50
2022-10-25T06:22:18.311Z,60.85
2022-10-25T06:24:49.231Z,60.82
2022-10-25T06:27:19.997Z,60.86
2022-10-25T06:29:51.092Z,60.83
2022-10-25T06:32:21.866Z,60.72
2022-10-25T06:34:52.895Z,61.04
2022-10-25T06:37:23.570Z,60.51
2022-10-25T06:39:54.561Z,60.76
2022-10-25T06:42:25.699Z,60.40
2022-10-25T06:44:56.361Z,59.91
2022-10-25T06:47:38.683Z,60.44
2022-10-25T06:50:10.692Z,59.24
2022-10-25T06:53:01.606Z,59.96
2022-10-25T06:55:32.441Z,60.21
2022-10-25T06:58:08.350Z,59.65
2022-10-25T07:00:39.326Z,59.16
2022-10-25T07:03:10.134Z,58.93
2022-10-25T07:06:01.729Z,59.80
2022-10-25T07:08:32.587Z,60.13
2022-10-25T07:11:03.901Z,59.90
2022-10-25T07:13:35.289Z,60.14
2022-10-25T07:16:07.802Z,59.82
2022-10-25T07:18:39.980Z,60.34
2022-10-25T07:21:14.511Z,60.39
2022-10-25T07:23:45.800Z,60.06
2022-10-25T07:26:19.750Z,60.25
2022-10-25T07:28:52.242Z,60.36
2022-10-25T07:31:26.447Z,59.81
2022-10-25T07:34:00.295Z,59.91
2022-10-25T07:36:31.698Z,60.03
2022-10-25T07:39:03.462Z,60.26
2022-10-25T07:41:34.324Z,59.02
2022-10-25T07:44:05.341Z,59.87
2022-10-25T07:46:36.054Z,59.71
2022-10-25T07:49:06.723Z,59.98
2022-10-25T07:51:37.506Z,59.92
2022-10-25T07:54:08.479Z,59.99
2022-10-25T07:56:39.411Z,60.08
2022-10-25T07:59:10.326Z,59.70
2022-10-25T08:01:41.394Z,59.45
2022-10-25T08:04:12.348Z,59.88
2022-10-25T08:06:43.519Z,59.85
2022-10-25T08:09:26.559Z,59.97
2022-10-25T08:12:04.595Z,60.25
2022-10-25T08:14:38.137Z,60.00
2022-10-25T08:17:11.796Z,59.88
2022-10-25T08:19:42.572Z,59.99
2022-10-25T08:22:13.410Z,60.20
2022-10-25T08:24:44.050Z,60.02
2022-10-25T08:27:14.975Z,59.69
2022-10-25T08:29:45.890Z,59.69
2022-10-25T08:32:17.191Z,59.79
2022-10-25T08:37:33.483Z,59.55
2022-10-25T08:40:04.397Z,59.96
2022-10-25T08:42:45.323Z,60.14
2022-10-25T08:45:48.489Z,60.10
2022-10-25T08:48:23.784Z,59.94
2022-10-25T08:50:59.275Z,59.83
2022-10-25T08:53:39.829Z,59.85
2022-10-25T08:56:17.945Z,60.03
2022-10-25T08:59:00.895Z,59.46
2022-10-25T09:01:50.333Z,59.73
2022-10-25T09:04:21.290Z,59.71
2022-10-25T09:07:22.910Z,59.76
2022-10-25T09:10:17.679Z,60.04
2022-10-25T09:12:56.120Z,59.93
2022-10-25T09:16:03.842Z,59.47
2022-10-25T09:18:50.982Z,59.77
2022-10-25T09:21:40.005Z,60.27
2022-10-25T09:24:36.337Z,60.00
2022-10-25T09:27:17.053Z,60.01
2022-10-25T09:30:07.343Z,59.60
2022-10-25T09:32:57.011Z,59.92
2022-10-25T09:35:48.428Z,60.01
2022-10-25T09:38:37.032Z,60.03
2022-10-25T09:41:29.944Z,60.49
2022-10-25T09:44:23.317Z,60.37
2022-10-25T09:47:24.086Z,59.85
2022-10-25T09:50:29.079Z,60.29
2022-10-25T09:53:18.900Z,60.45
2022-10-25T09:55:58.784Z,60.31
2022-10-25T09:58:33.163Z,60.37
2022-10-25T10:01:09.366Z,60.21
2022-10-25T10:03:40.584Z,60.28
2022-10-25T10:06:39.309Z,60.42
2022-10-25T10:09:15.166Z,60.58
2022-10-25T10:11:47.454Z,60.83
2022-10-25T10:14:33.264Z,60.52
2022-10-25T10:17:05.295Z,60.72
2022-10-25T10:19:36.264Z,60.77
2022-10-25T10:22:16.047Z,61.06
2022-10-25T10:24:52.170Z,60.98
2022-10-25T10:27:28.906Z,61.11
2022-10-25T10:30:03.669Z,61.40
2022-10-25T10:35:32.676Z,61.31
2022-10-25T10:38:32.726Z,61.41
2022-10-25T10:41:30.678Z,61.51
2022-10-25T10:44:15.954Z,61.24
2022-10-25T10:46:51.899Z,61.39
2022-10-25T10:49:22.635Z,61.62
2022-10-25T10:51:53.617Z,61.60
2022-10-25T10:54:33.460Z,61.45
2022-10-25T10:57:10.013Z,61.29
2022-10-25T10:59:59.289Z,61.54
2022-10-25T11:02:44.872Z,61.51
2022-10-25T11:05:32.963Z,61.61
2022-10-25T11:08:12.281Z,61.85
2022-10-25T11:10:43.603Z,61.69
2022-10-25T11:13:16.038Z,61.66
2022-10-25T11:16:05.016Z,61.56
2022-10-25T11:18:54.249Z,61.82
2022-10-25T11:21:33.758Z,61.44
2022-10-25T11:24:28.868Z,61.65
2022-10-25T11:27:21.287Z,61.54
2022-10-25T11:30:00.481Z,61.86
2022-10-25T11:32:47.581Z,61.57
2022-10-25T11:35:58.863Z,61.92
2022-10-25T11:38:48.062Z,62.20
2022-10-25T11:41:44.044Z,61.87
2022-10-25T11:44:35.676Z,61.70
2022-10-25T11:47:12.039Z,61.78
2022-10-25T11:50:01.617Z,62.04
2022-10-25T11:53:23.237Z,61.40
2022-10-25T11:56:03.848Z,61.37
2022-10-25T11:59:04.617Z,61.35
2022-10-25T12:02:05.183Z,61.08
2022-10-25T12:04:44.452Z,61.05
2022-10-25T12:07:33.561Z,61.19
2022-10-25T12:10:31.175Z,61.35
2022-10-25T12:13:14.804Z,61.21
2022-10-25T12:15:51.566Z,61.41
2022-10-25T12:18:29.369Z,61.63
2022-10-25T12:21:01.661Z,61.65
2022-10-25T12:23:47.210Z,61.44
2022-10-25T12:26:36.106Z,61.42
2022-10-25T12:29:10.186Z,61.40
2022-10-25T12:31:46.308Z,61.30
2022-10-25T12:34:46.683Z,61.10
2022-10-25T12:37:40.951Z,60.59
2022-10-25T12:40:19.999Z,61.08
2022-10-25T12:43:10.539Z,60.94
2022-10-25T12:46:01.934Z,61.02
2022-10-25T12:48:50.911Z,61.42
2022-10-25T12:51:30.748Z,61.70
2022-10-25T12:54:35.937Z,61.41
2022-10-25T12:57:27.503Z,61.96
2022-10-25T13:00:23.868Z,61.57
2022-10-25T13:03:22.708Z,61.90
2022-10-25T13:06:19.313Z,62.23
2022-10-25T13:08:50.648Z,62.36
2022-10-25T13:11:21.716Z,62.18
2022-10-25T13:13:58.885Z,62.26
2022-10-25T13:16:33.168Z,62.45
2022-10-25T13:22:57.181Z,61.85
2022-10-25T13:25:33.962Z,61.65
2022-10-25T13:28:20.048Z,61.71
2022-10-25T13:30:50.968Z,61.88
2022-10-25T13:33:23.790Z,61.88
2022-10-25T13:35:54.601Z,61.77
2022-10-25T13:38:33.281Z,62.13
2022-10-25T13:41:13.719Z,62.04
2022-10-25T13:44:07.981Z,61.80
2022-10-25T13:46:42.538Z,62.21
2022-10-25T13:49:34.490Z,62.35
2022-10-25T13:52:09.397Z,62.16
2022-10-25T13:54:53.279Z,62.01
2022-10-25T13:57:49.154Z,61.80
2022-10-25T14:00:37.469Z,61.83
2022-10-25T14:03:17.040Z,62.03
2022-10-25T14:06:18.452Z,62.22
2022-10-25T14:08:48.987Z,62.25
2022-10-25T14:11:26.355Z,62.46
2022-10-25T14:14:15.427Z,62.25
2022-10-25T14:17:23.206Z,62.29
2022-10-25T14:20:00.635Z,61.78
2022-10-25T14:22:57.087Z,62.28
2022-10-25T14:25:43.658Z,61.63
2022-10-25T14:28:20.304Z,61.51
2022-10-25T14:30:53.224Z,61.41
2022-10-25T14:33:36.766Z,61.89
2022-10-25T14:36:13.301Z,62.43
2022-10-25T14:38:57.057Z,62.47
2022-10-25T14:41:33.628Z,62.24
2022-10-25T14:44:05.367Z,62.31
2022-10-25T14:46:36.712Z,62.26
2022-10-25T14:49:12.516Z,61.96
2022-10-25T14:51:46.249Z,61.74
2022-10-25T14:54:38.835Z,61.71
2022-10-25T14:57:13.293Z,61.56
2022-10-25T14:59:51.117Z,62.22
2022-10-25T15:02:31.247Z,62.23
2022-10-25T15:05:04.039Z,62.06
2022-10-25T15:07:45.407Z,62.23
2022-10-25T15:10:37.666Z,62.61
2022-10-25T15:13:38.743Z,62.66
2022-10-25T15:16:35.544Z,62.78
2022-10-25T15:19:15.402Z,63.39
2022-10-25T15:21:54.311Z,62.96
2022-10-25T15:24:28.006Z,63.21
2022-10-25T15:27:03.494Z,63.09
2022-10-25T15:32:30.172Z,63.57
2022-10-25T15:35:05.387Z,63.38
2022-10-25T15:37:36.227Z,63.52
2022-10-25T15:40:19.192Z,63.48
2022-10-25T15:42:50.179Z,63.66
2022-10-25T15:45:21.206Z,64.10
2022-10-25T15:47:52.843Z,64.07
2022-10-25T15:50:25.400Z,64.45
2022-10-25T15:52:56.686Z,64.02
2022-10-25T15:55:30.079Z,63.90
2022-10-25T15:58:00.940Z,63.60
2022-10-25T16:00:33.784Z,63.65
2022-10-25T16:03:04.886Z,63.95
2022-10-25T16:05:37.294Z,63.49
2022-10-25T16:08:10.666Z,62.85
2022-10-25T16:10:42.477Z,62.68
2022-10-25T16:13:18.728Z,62.98
2022-10-25T16:15:49.581Z,62.76
2022-10-25T16:18:20.898Z,62.96
2022-10-25T16:20:52.005Z,63.06
2022-10-25T16:23:26.478Z,63.74
2022-10-25T16:25:59.052Z,63.99
2022-10-25T16:28:29.942Z,63.52
2022-10-25T16:31:00.669Z,63.77
2022-10-25T16:33:31.573Z,63.36
2022-10-25T16:36:02.416Z,63.89
2022-10-25T16:38:33.337Z,63.85
2022-10-25T16:41:04.190Z,63.68
2022-10-25T16:43:35.139Z,63.79
2022-10-25T16:46:05.865Z,63.45
2022-10-25T16:48:38.916Z,63.42
2022-10-25T16:51:09.741Z,63.17
2022-10-25T16:53:40.648Z,63.42
2022-10-25T16:56:14.068Z,63.46
2022-10-25T16:58:45.960Z,63.45
2022-10-25T17:01:44.582Z,63.28
2022-10-25T17:04:17.740Z,63.45
2022-10-25T17:06:48.645Z,63.35
2022-10-25T17:09:20.579Z,63.22
2022-10-25T17:11:51.348Z,63.26
2022-10-25T17:14:22.071Z,63.47
2022-10-25T17:16:53.003Z,63.11
2022-10-25T17:19:23.778Z,63.10
2022-10-25T17:21:54.685Z,63.29
2022-10-25T17:24:26.560Z,62.93
2022-10-25T17:26:57.574Z,63.11
2022-10-25T17:29:28.701Z,62.70
2022-10-25T17:31:59.597Z,62.68
2022-10-25T17:34:30.428Z,62.62
2022-10-25T17:37:02.872Z,62.38
2022-10-25T17:39:33.633Z,62.62
2022-10-25T17:42:04.949Z,62.38
2022-10-25T17:44:35.396Z,62.55
2022-10-25T17:47:06.429Z,62.33
2022-10-25T17:49:37.079Z,62.45
2022-10-25T17:52:09.435Z,62.37
2022-10-25T17:54:41.505Z,62.13
2022-10-25T17:57:12.428Z,62.11
2022-10-25T17:59:43.253Z,62.26
2022-10-25T18:02:16.402Z,62.03
2022-10-25T18:05:02.303Z,61.99
2022-10-25T18:07:40.318Z,61.80
2022-10-25T18:10:11.651Z,62.14
2022-10-25T18:12:42.013Z,62.37
2022-10-25T18:15:13.297Z,62.14
2022-10-25T18:17:44.813Z,62.28
2022-10-25T18:20:16.223Z,62.05
2022-10-25T18:22:47.784Z,61.98
2022-10-25T18:25:18.769Z,62.05
2022-10-25T18:27:49.907Z,62.14
2022-10-25T18:30:21.103Z,61.92
2022-10-25T18:32:52.133Z,62.24
2022-10-25T18:35:24.022Z,62.17
2022-10-25T18:37:54.950Z,62.35
2022-10-25T18:40:25.863Z,62.22
2022-10-25T18:42:56.709Z,62.32
2022-10-25T18:45:27.825Z,62.29
2022-10-25T18:47:58.475Z,62.27
2022-10-25T18:50:29.432Z,62.23
2022-10-25T18:53:00.650Z,62.31
2022-10-25T18:55:56.386Z,62.42
2022-10-25T18:58:27.455Z,62.30
2022-10-25T19:00:58.263Z,62.42
2022-10-25T19:03:29.160Z,62.45
2022-10-25T19:06:00.142Z,62.51
2022-10-25T19:08:30.946Z,62.54
2022-10-25T19:11:05.404Z,62.59
2022-10-25T19:13:37.390Z,62.73
2022-10-25T19:16:09.593Z,62.59
2022-10-25T19:18:40.802Z,62.79
2022-10-25T19:21:29.740Z,62.69
2022-10-25T19:24:00.581Z,62.96
2022-10-25T19:26:31.419Z,62.75
2022-10-25T19:29:03.864Z,62.69
2022-10-25T19:31:34.792Z,62.93
2022-10-25T19:34:06.092Z,62.85
2022-10-25T19:36:54.866Z,62.81
2022-10-25T19:39:25.722Z,62.72
2022-10-25T19:41:56.567Z,62.67
2022-10-25T19:44:27.463Z,62.85
2022-10-25T19:47:00.266Z,63.03
2022-10-25T19:49:31.223Z,62.88
2022-10-25T19:52:02.081Z,63.09
2022-10-25T19:54:32.929Z,62.90
2022-10-25T19:57:04.908Z,62.93
2022-10-25T19:59:36.599Z,63.19
2022-10-25T20:02:07.612Z,62.96
2022-10-25T20:04:38.837Z,63.00
2022-10-25T20:07:09.898Z,62.90
2022-10-25T20:09:40.822Z,63.07
2022-10-25T20:12:11.825Z,62.90
2022-10-25T20:14:42.932Z,62.83
2022-10-25T20:17:15.200Z,63.15
2022-10-25T20:19:45.982Z,62.87
2022-10-25T20:22:16.924Z,63.03
2022-10-25T20:24:47.700Z,63.09
2022-10-25T20:27:18.484Z,62.95
2022-10-25T20:29:49.479Z,63.00
2022-10-25T20:32:20.469Z,62.80
2022-10-25T20:34:51.429Z,62.87
2022-10-25T20:37:22.382Z,62.83
2022-10-25T20:39:53.245Z,63.07
2022-10-25T20:42:24.313Z,62.86
2022-10-25T20:44:55.499Z,62.84
2022-10-25T20:47:26.053Z,63.15
2022-10-25T20:49:56.823Z,63.20
2022-10-25T20:52:27.773Z,63.13
2022-10-25T20:54:58.653Z,62.93
2022-10-25T20:57:29.622Z,62.88
2022-10-25T21:00:00.495Z,63.30
2022-10-25T21:02:31.436Z,63.12
2022-10-25T21:05:02.268Z,63.21
2022-10-25T21:07:34.435Z,63.06
2022-10-25T21:10:05.207Z,62.90
2022-10-25T21:12:36.256Z,62.79
2022-10-25T21:15:11.002Z,62.85
2022-10-25T21:17:43.083Z,63.17
2022-10-25T21:20:14.235Z,62.92
2022-10-25T21:22:45.202Z,63.05
2022-10-25T21:25:16.149Z,63.03
2022-10-25T21:27:47.518Z,62.94
2022-10-25T21:30:17.967Z,63.03
2022-10-25T21:32:48.866Z,63.03
2022-10-25T21:35:20.540Z,63.02
2022-10-25T21:38:09.063Z,63.18
2022-10-25T21:40:39.970Z,63.03
2022-10-25T21:43:10.922Z,63.13
2022-10-25T21:45:44.823Z,63.19
2022-10-25T21:48:15.642Z,63.07
2022-10-25T21:50:46.572Z,62.83
2022-10-25T21:53:17.576Z,62.95
2022-10-25T21:55:48.307Z,62.66
2022-10-25T21:58:19.214Z,62.82
2022-10-25T22:00:50.123Z,62.85
2022-10-25T22:03:23.053Z,62.75
2022-10-25T22:05:56.392Z,62.98
2022-10-25T22:08:27.571Z,63.22
2022-10-25T22:13:31.024Z,62.79
2022-10-25T22:16:05.594Z,62.93
2022-10-25T22:19:18.728Z,62.70
2022-10-25T22:21:51.718Z,62.96
2022-10-25T22:24:22.684Z,63.03
2022-10-25T22:26:54.206Z,63.48
2022-10-25T22:29:25.227Z,63.46
2022-10-25T22:31:56.162Z,63.59
2022-10-25T22:34:27.124Z,63.59
2022-10-25T22:36:58.042Z,63.24
2022-10-25T22:39:28.959Z,63.43
2022-10-25T22:41:59.713Z,63.51
2022-10-25T22:44:30.616Z,63.02
2022-10-25T22:47:01.509Z,62.99
2022-10-25T22:49:32.325Z,63.47
2022-10-25T22:54:42.893Z,63.68
2022-10-25T22:57:13.909Z,63.02
2022-10-25T22:59:44.957Z,62.49
2022-10-25T23:02:15.797Z,62.53
2022-10-25T23:04:46.818Z,63.03
2022-10-25T23:07:17.845Z,62.58
2022-10-25T23:09:48.610Z,62.76
2022-10-25T23:12:19.434Z,62.79
2022-10-25T23:14:50.325Z,63.17
2022-10-25T23:17:21.301Z,63.09
2022-10-25T23:19:52.092Z,63.05
2022-10-25T23:22:22.986Z,62.90
2022-10-25T23:24:53.774Z,63.33
2022-10-25T23:27:24.386Z,62.93
2022-10-25T23:29:55.232Z,62.76
2022-10-25T23:32:26.053Z,63.09
2022-10-25T23:34:57.203Z,63.19
2022-10-25T23:37:28.080Z,62.96
2022-10-25T23:39:59.264Z,63.26
2022-10-25T23:42:30.083Z,62.89
2022-10-25T23:45:00.836Z,62.87
2022-10-25T23:47:31.637Z,62.74
2022-10-25T23:50:02.823Z,63.00
2022-10-25T23:52:33.705Z,62.99
2022-10-25T23:55:04.765Z,63.37
2022-10-25T23:57:35.528Z,63.04
